Time;durP1;ratioP1;P1;durP2;ratioP2;P2;SDS_P1;SDS_P2;PMS_P1;PMS_P2;Temp;Humidity;BMP_temperature;BMP_pressure;BME280_temperature;BME280_humidity;BME280_pressure;Samples;Min_cycle;Max_cycle;Signal;HPM_P1;HPM_P2
2023/07/03 00:00:43;;;;;;;14.57;5.15;;;16.20;99.90;;;;;;4988331;28;20961;-77
2023/07/03 00:03:13;;;;;;;13.47;4.60;;;16.30;99.90;;;;;;4978483;28;20459;-77
2023/07/03 00:05:46;;;;;;;13.48;5.25;;;16.30;99.90;;;;;;4908284;28;20425;-78
2023/07/03 00:08:16;;;;;;;13.88;5.45;;;16.20;99.90;;;;;;4907352;28;20772;-79
2023/07/03 00:10:42;;;;;;;14.32;4.68;;;16.20;99.90;;;;;;4928760;28;20891;-78
2023/07/03 00:13:09;;;;;;;19.50;4.80;;;16.30;99.90;;;;;;4906661;28;20465;-77
2023/07/03 00:15:34;;;;;;;15.90;5.93;;;16.20;99.90;;;;;;4906649;28;20453;-76
2023/07/03 00:18:00;;;;;;;13.32;5.60;;;16.20;99.90;;;;;;4930194;28;20433;-78
2023/07/03 00:20:27;;;;;;;15.80;5.17;;;16.20;99.90;;;;;;4943905;28;20447;-77
2023/07/03 00:22:55;;;;;;;13.45;4.82;;;16.20;99.90;;;;;;4956829;28;21531;-78
2023/07/03 00:25:21;;;;;;;11.18;5.72;;;16.30;99.90;;;;;;4932597;28;20418;-77
2023/07/03 00:27:47;;;;;;;14.45;4.70;;;16.20;99.90;;;;;;4919800;28;20429;-78
2023/07/03 00:30:14;;;;;;;14.13;5.35;;;16.30;99.90;;;;;;4946063;28;20520;-78
2023/07/03 00:32:40;;;;;;;15.90;5.25;;;16.20;99.90;;;;;;4965316;28;20427;-77
2023/07/03 00:35:06;;;;;;;15.50;6.18;;;16.20;99.90;;;;;;4972665;28;20424;-78
2023/07/03 00:37:33;;;;;;;16.98;5.10;;;16.20;99.90;;;;;;4944128;28;20433;-78
2023/07/03 00:39:59;;;;;;;14.23;4.73;;;16.20;99.90;;;;;;4949535;28;20529;-78
2023/07/03 00:42:29;;;;;;;15.32;4.90;;;16.30;99.90;;;;;;4910502;29;20508;-77
2023/07/03 00:44:55;;;;;;;18.17;5.22;;;16.30;99.90;;;;;;4962732;28;20971;-79
2023/07/03 00:47:22;;;;;;;13.40;5.15;;;16.20;99.90;;;;;;4987109;28;20418;-77
2023/07/03 00:49:49;;;;;;;14.07;4.15;;;16.30;99.90;;;;;;4949778;28;20796;-78
2023/07/03 00:52:15;;;;;;;12.75;3.88;;;16.30;99.90;;;;;;4912358;29;20476;-81
2023/07/03 00:54:41;;;;;;;13.18;4.20;;;16.30;99.90;;;;;;4955375;28;20511;-79
2023/07/03 00:57:12;;;;;;;13.73;5.33;;;16.20;99.90;;;;;;5011850;28;20788;-76
2023/07/03 00:59:38;;;;;;;12.50;4.40;;;16.20;99.90;;;;;;4955658;28;20436;-79
2023/07/03 01:02:26;;;;;;;16.33;5.65;;;16.30;99.90;;;;;;5004875;28;20826;-78
2023/07/03 01:05:00;;;;;;;17.27;5.25;;;16.30;99.90;;;;;;5057312;23;20984;-77
2023/07/03 01:07:32;;;;;;;13.50;5.15;;;16.30;99.90;;;;;;5012857;28;20515;-78
2023/07/03 01:10:05;;;;;;;16.10;4.68;;;16.30;99.90;;;;;;5011244;28;20543;-77
2023/07/03 01:12:35;;;;;;;17.93;5.03;;;16.30;99.90;;;;;;5033835;28;20442;-80
2023/07/03 01:15:06;;;;;;;14.00;4.40;;;16.20;99.90;;;;;;5009564;28;20959;-76
2023/07/03 01:17:32;;;;;;;12.05;4.53;;;16.30;99.90;;;;;;4990325;28;20457;-75
2023/07/03 01:20:00;;;;;;;12.00;3.73;;;16.30;99.90;;;;;;5023365;28;20478;-77
2023/07/03 01:22:36;;;;;;;11.60;4.30;;;16.20;99.90;;;;;;5022475;28;20805;-74
2023/07/03 01:25:08;;;;;;;14.18;3.95;;;16.30;99.90;;;;;;5013533;28;20798;-78
2023/07/03 01:27:41;;;;;;;11.20;4.10;;;16.30;99.90;;;;;;5011116;28;20432;-79
2023/07/03 01:30:11;;;;;;;12.68;4.00;;;16.20;99.90;;;;;;5015659;28;20493;-79
2023/07/03 01:32:38;;;;;;;12.77;4.13;;;16.20;99.90;;;;;;5011189;28;20482;-78
2023/07/03 01:35:05;;;;;;;13.63;4.07;;;16.20;99.90;;;;;;5013054;28;21058;-77
2023/07/03 01:37:34;;;;;;;13.50;3.88;;;16.10;99.90;;;;;;5010476;28;20925;-75
2023/07/03 01:40:01;;;;;;;12.70;3.88;;;16.10;99.90;;;;;;5023386;28;20510;-77
2023/07/03 01:42:29;;;;;;;10.20;3.67;;;16.10;99.90;;;;;;5027060;28;20419;-77
2023/07/03 01:44:55;;;;;;;12.85;3.28;;;16.10;99.90;;;;;;5013063;28;20519;-78
2023/07/03 01:47:21;;;;;;;9.95;3.10;;;16.20;99.90;;;;;;5024741;28;20435;-78
2023/07/03 01:49:48;;;;;;;11.38;3.35;;;16.10;99.90;;;;;;5010911;28;20412;-79
2023/07/03 01:52:20;;;;;;;7.70;3.05;;;16.10;99.90;;;;;;5007480;28;20618;-77
2023/07/03 01:55:14;;;;;;;8.88;2.55;;;16.10;99.90;;;;;;5000475;28;20433;-80
2023/07/03 01:58:04;;;;;;;7.53;3.15;;;16.00;99.90;;;;;;5009680;28;20443;-78
2023/07/03 02:00:42;;;;;;;11.40;3.05;;;16.00;99.90;;;;;;4974480;28;20456;-77
2023/07/03 02:03:23;;;;;;;6.90;2.28;;;16.00;99.90;;;;;;5000439;28;20420;-77
2023/07/03 02:05:51;;;;;;;8.27;3.10;;;16.00;99.90;;;;;;5016542;28;20439;-78
2023/07/03 02:08:18;;;;;;;11.77;2.97;;;16.00;99.90;;;;;;5011556;28;20449;-78
2023/07/03 02:10:44;;;;;;;8.98;2.63;;;15.90;99.90;;;;;;5010450;28;20440;-79
2023/07/03 02:13:10;;;;;;;10.10;2.20;;;15.90;99.90;;;;;;5012559;28;20424;-77
2023/07/03 02:15:35;;;;;;;8.45;3.00;;;15.80;99.90;;;;;;4994203;28;20539;-78
2023/07/03 02:18:01;;;;;;;11.65;3.22;;;15.80;99.90;;;;;;5009125;28;20432;-79
2023/07/03 02:20:28;;;;;;;11.18;3.88;;;15.80;99.90;;;;;;5014844;28;20435;-78
2023/07/03 02:22:54;;;;;;;11.40;2.65;;;15.80;99.90;;;;;;5010311;28;20802;-76
2023/07/03 02:25:19;;;;;;;11.82;2.67;;;15.80;99.90;;;;;;5006943;28;20436;-78
2023/07/03 02:27:46;;;;;;;10.90;2.83;;;15.80;99.90;;;;;;5010026;28;20480;-77
2023/07/03 02:30:12;;;;;;;8.73;2.58;;;15.70;99.90;;;;;;4994707;28;20923;-77
2023/07/03 02:32:40;;;;;;;9.73;2.65;;;15.70;99.90;;;;;;5022829;28;20426;-78
2023/07/03 02:35:07;;;;;;;9.37;2.83;;;15.70;99.90;;;;;;4997699;28;20427;-80
2023/07/03 02:37:33;;;;;;;10.63;2.25;;;15.60;99.90;;;;;;5024636;28;20445;-78
2023/07/03 02:39:59;;;;;;;8.57;2.47;;;15.60;99.90;;;;;;5010158;28;20509;-79
2023/07/03 02:42:25;;;;;;;9.88;2.60;;;15.50;99.90;;;;;;4994240;28;20440;-78
2023/07/03 02:44:51;;;;;;;8.50;2.35;;;15.50;99.90;;;;;;5021758;28;20415;-77
2023/07/03 02:47:17;;;;;;;14.88;3.47;;;15.50;99.90;;;;;;5015342;28;20443;-78
2023/07/03 02:49:43;;;;;;;9.23;2.85;;;15.40;99.90;;;;;;5002618;28;20725;-77
2023/07/03 02:52:09;;;;;;;10.00;2.25;;;15.40;99.90;;;;;;5015442;28;20501;-77
2023/07/03 02:54:35;;;;;;;7.32;1.98;;;15.30;99.90;;;;;;5014689;28;20431;-77
2023/07/03 02:57:01;;;;;;;9.38;2.42;;;15.30;99.90;;;;;;5006554;28;20794;-79
2023/07/03 02:59:29;;;;;;;9.10;2.67;;;15.30;99.90;;;;;;4993708;28;20774;-75
2023/07/03 03:01:55;;;;;;;11.40;2.70;;;15.20;99.90;;;;;;5015641;28;20431;-76
2023/07/03 03:04:21;;;;;;;8.88;2.13;;;15.30;99.90;;;;;;4999063;28;20430;-76
2023/07/03 03:06:46;;;;;;;12.52;2.45;;;15.20;99.90;;;;;;5006382;28;20453;-77
2023/07/03 03:09:12;;;;;;;10.98;2.00;;;15.10;99.90;;;;;;5009409;28;20405;-77
2023/07/03 03:11:38;;;;;;;13.37;2.63;;;15.10;99.90;;;;;;5020257;28;20809;-77
2023/07/03 03:14:03;;;;;;;9.33;3.40;;;15.00;99.90;;;;;;5015805;28;20423;-76
2023/07/03 03:16:29;;;;;;;9.30;2.97;;;15.00;99.90;;;;;;5026469;28;20437;-77
2023/07/03 03:18:55;;;;;;;10.53;2.53;;;15.00;99.90;;;;;;5009185;28;20627;-77
2023/07/03 03:21:20;;;;;;;12.13;2.08;;;15.00;99.90;;;;;;5004169;28;20424;-75
2023/07/03 03:23:46;;;;;;;12.45;3.03;;;14.90;99.90;;;;;;4993954;28;20429;-76
2023/07/03 03:26:13;;;;;;;11.02;2.72;;;14.90;99.90;;;;;;5020053;28;20910;-78
2023/07/03 03:28:38;;;;;;;8.20;2.20;;;14.80;99.90;;;;;;4994270;28;20448;-77
2023/07/03 03:31:05;;;;;;;12.02;3.85;;;14.80;99.90;;;;;;5009046;28;20436;-76
2023/07/03 03:33:30;;;;;;;8.10;2.20;;;14.80;99.90;;;;;;5017190;28;20506;-77
2023/07/03 03:35:56;;;;;;;15.67;2.93;;;14.70;99.90;;;;;;5024693;28;20510;-78
2023/07/03 03:38:22;;;;;;;10.32;2.20;;;14.70;99.90;;;;;;5016500;28;20474;-76
2023/07/03 03:40:58;;;;;;;9.35;2.50;;;14.80;99.90;;;;;;5011083;28;20422;-78
2023/07/03 03:43:24;;;;;;;13.50;3.90;;;14.60;99.90;;;;;;5019688;28;20546;-77
2023/07/03 03:45:57;;;;;;;13.73;3.87;;;14.60;99.90;;;;;;5015113;28;20436;-75
2023/07/03 03:48:24;;;;;;;11.82;2.33;;;14.60;99.90;;;;;;5010740;28;20428;-78
2023/07/03 03:50:50;;;;;;;10.23;3.65;;;14.70;99.90;;;;;;5017123;28;20532;-74
2023/07/03 03:53:16;;;;;;;13.32;2.97;;;14.70;99.90;;;;;;5021509;28;20428;-76
2023/07/03 03:55:43;;;;;;;9.30;3.03;;;14.70;99.90;;;;;;5008644;28;20416;-77
2023/07/03 03:58:11;;;;;;;10.27;2.60;;;14.70;99.90;;;;;;4997311;28;20573;-76
2023/07/03 04:00:37;;;;;;;11.10;3.00;;;14.60;99.90;;;;;;5001386;28;20517;-77
2023/07/03 04:03:03;;;;;;;11.30;2.97;;;14.60;99.90;;;;;;5020807;28;20486;-76
2023/07/03 04:05:29;;;;;;;9.33;2.60;;;14.60;99.90;;;;;;5023369;28;20821;-75
2023/07/03 04:07:54;;;;;;;13.13;2.95;;;14.70;99.90;;;;;;4990932;28;20463;-76
2023/07/03 04:10:20;;;;;;;12.55;3.28;;;14.70;99.90;;;;;;5008425;28;20466;-77
2023/07/03 04:12:46;;;;;;;9.60;2.85;;;14.70;99.90;;;;;;5009027;28;20440;-77
2023/07/03 04:15:11;;;;;;;9.13;3.05;;;14.80;99.90;;;;;;5007160;28;20440;-78
2023/07/03 04:17:37;;;;;;;12.90;3.27;;;15.10;99.90;;;;;;5007740;28;20436;-78
2023/07/03 04:20:07;;;;;;;9.67;2.60;;;15.10;99.90;;;;;;5012248;28;20915;-74
2023/07/03 04:22:33;;;;;;;11.07;2.83;;;15.00;99.90;;;;;;5008893;28;20447;-80
2023/07/03 04:24:59;;;;;;;9.87;2.63;;;14.90;99.90;;;;;;4988155;28;20432;-77
2023/07/03 04:27:24;;;;;;;11.10;3.80;;;14.90;99.90;;;;;;5006181;28;20423;-78
2023/07/03 04:29:50;;;;;;;9.40;2.50;;;14.90;99.90;;;;;;5009905;28;22347;-77
2023/07/03 04:32:16;;;;;;;10.75;3.33;;;14.90;99.90;;;;;;5008413;28;20446;-77
2023/07/03 04:34:42;;;;;;;10.10;2.35;;;15.10;99.90;;;;;;5009495;28;20457;-78
2023/07/03 04:37:08;;;;;;;9.93;4.55;;;15.70;99.90;;;;;;5009773;28;20444;-76
2023/07/03 04:39:34;;;;;;;10.70;2.55;;;15.70;99.90;;;;;;5027407;28;20423;-76
2023/07/03 04:42:00;;;;;;;13.68;3.10;;;15.80;99.90;;;;;;4995692;28;20513;-75
2023/07/03 04:44:29;;;;;;;10.23;2.58;;;15.60;99.90;;;;;;5017582;28;20854;-75
2023/07/03 04:46:58;;;;;;;9.33;2.57;;;15.40;99.90;;;;;;5000140;28;20434;-76
2023/07/03 04:49:26;;;;;;;9.23;3.30;;;15.40;99.90;;;;;;5025718;28;20428;-76
2023/07/03 04:51:54;;;;;;;14.00;3.30;;;15.60;99.90;;;;;;5029333;28;20439;-77
2023/07/03 04:54:21;;;;;;;11.27;3.42;;;15.90;99.90;;;;;;5014861;28;20420;-77
2023/07/03 04:56:48;;;;;;;12.30;3.38;;;15.60;99.90;;;;;;5010461;28;20424;-77
2023/07/03 04:59:15;;;;;;;11.02;2.65;;;15.60;99.90;;;;;;4995029;28;20428;-76
2023/07/03 05:01:43;;;;;;;10.70;2.38;;;15.60;99.90;;;;;;4983829;28;20825;-78
2023/07/03 05:04:10;;;;;;;12.65;2.83;;;15.50;99.90;;;;;;5007890;28;20767;-77
2023/07/03 05:06:36;;;;;;;11.30;3.00;;;15.60;99.90;;;;;;5009658;28;20450;-76
2023/07/03 05:09:03;;;;;;;9.65;2.38;;;15.70;99.90;;;;;;4991856;28;20433;-75
2023/07/03 05:11:29;;;;;;;15.35;3.25;;;15.60;99.90;;;;;;4990784;28;21449;-76
2023/07/03 05:13:56;;;;;;;14.80;2.97;;;15.80;99.90;;;;;;5011468;28;20465;-75
2023/07/03 05:16:22;;;;;;;16.33;4.43;;;15.80;99.90;;;;;;5010624;28;20443;-76
2023/07/03 05:18:48;;;;;;;10.43;3.08;;;15.80;99.90;;;;;;5028238;28;20973;-75
2023/07/03 05:21:14;;;;;;;10.27;2.87;;;15.80;99.90;;;;;;4991896;28;20422;-76
2023/07/03 05:23:40;;;;;;;13.40;3.45;;;15.80;99.90;;;;;;5005662;28;20455;-77
2023/07/03 05:26:06;;;;;;;9.40;3.72;;;15.70;99.90;;;;;;5012062;28;20444;-75
2023/07/03 05:28:33;;;;;;;10.07;3.33;;;15.60;99.90;;;;;;5013314;28;20507;-76
2023/07/03 05:30:59;;;;;;;10.05;2.60;;;15.60;99.90;;;;;;5012554;28;20442;-76
2023/07/03 05:33:26;;;;;;;11.70;3.40;;;15.60;99.90;;;;;;5025642;28;21886;-76
2023/07/03 05:35:52;;;;;;;14.40;3.65;;;15.60;99.90;;;;;;5019452;28;20899;-76
2023/07/03 05:38:19;;;;;;;14.05;3.25;;;15.70;99.90;;;;;;4999223;28;20426;-76
2023/07/03 05:40:45;;;;;;;12.35;3.08;;;15.80;99.90;;;;;;5030636;28;20465;-75
2023/07/03 05:43:11;;;;;;;14.82;3.80;;;15.90;99.90;;;;;;5024840;28;20494;-76
2023/07/03 05:45:37;;;;;;;11.07;2.60;;;15.90;99.90;;;;;;4998200;28;21565;-76
2023/07/03 05:48:03;;;;;;;10.73;2.50;;;15.90;99.90;;;;;;4991515;28;20461;-76
2023/07/03 05:50:29;;;;;;;7.95;2.05;;;16.10;99.90;;;;;;5011628;28;20516;-77
2023/07/03 05:52:54;;;;;;;9.23;2.10;;;16.20;99.90;;;;;;5017280;28;20531;-75
2023/07/03 05:55:20;;;;;;;8.47;2.53;;;16.30;99.90;;;;;;5023263;28;20423;-75
2023/07/03 05:57:46;;;;;;;13.50;3.50;;;16.30;99.90;;;;;;5030366;28;20836;-76
2023/07/03 06:00:15;;;;;;;9.60;2.53;;;16.20;99.90;;;;;;5027959;28;20426;-75
2023/07/03 06:02:42;;;;;;;12.00;2.63;;;16.30;99.90;;;;;;5025677;28;20430;-74
2023/07/03 06:05:09;;;;;;;10.55;2.20;;;16.30;99.90;;;;;;5015691;28;20425;-75
2023/07/03 06:07:34;;;;;;;11.10;2.53;;;16.50;99.90;;;;;;5017047;28;20435;-75
2023/07/03 06:10:00;;;;;;;9.88;3.42;;;16.30;99.90;;;;;;5015427;28;20462;-76
2023/07/03 06:12:29;;;;;;;10.07;2.55;;;16.30;99.90;;;;;;5011614;28;20433;-76
2023/07/03 06:14:59;;;;;;;8.48;2.08;;;16.40;99.90;;;;;;5018819;28;20429;-76
2023/07/03 06:17:26;;;;;;;11.07;1.90;;;16.50;99.90;;;;;;5005126;28;20440;-75
2023/07/03 06:19:52;;;;;;;12.77;2.33;;;16.50;99.90;;;;;;5018864;28;20415;-75
2023/07/03 06:22:18;;;;;;;8.25;2.22;;;16.50;99.90;;;;;;4996624;28;20790;-77
2023/07/03 06:24:44;;;;;;;11.57;2.80;;;16.40;99.90;;;;;;5005600;28;20996;-76
2023/07/03 06:27:10;;;;;;;10.55;2.08;;;16.40;99.90;;;;;;5006533;28;20511;-76
2023/07/03 06:29:36;;;;;;;9.38;2.67;;;16.50;99.90;;;;;;4995745;28;20519;-75
2023/07/03 06:32:02;;;;;;;10.97;2.43;;;16.70;99.90;;;;;;5009685;28;21038;-77
2023/07/03 06:34:28;;;;;;;11.17;2.40;;;16.70;99.90;;;;;;5005334;28;20455;-76
2023/07/03 06:36:53;;;;;;;10.40;2.10;;;16.80;99.90;;;;;;5008571;28;20464;-75
2023/07/03 06:39:19;;;;;;;10.57;3.33;;;16.80;99.90;;;;;;5007208;28;20421;-76
2023/07/03 06:41:45;;;;;;;10.93;2.40;;;16.80;99.90;;;;;;5008708;28;20425;-77
2023/07/03 06:44:16;;;;;;;10.80;2.90;;;16.70;99.90;;;;;;5016694;28;20447;-74
2023/07/03 06:46:42;;;;;;;11.93;2.87;;;16.80;99.90;;;;;;5009900;28;20793;-75
2023/07/03 06:49:09;;;;;;;13.32;3.00;;;16.70;99.90;;;;;;5009507;28;20401;-77
2023/07/03 06:51:35;;;;;;;12.15;2.65;;;16.80;99.90;;;;;;5014321;28;20854;-76
2023/07/03 06:54:01;;;;;;;8.23;1.88;;;16.90;99.90;;;;;;5009767;28;20432;-76
2023/07/03 06:56:28;;;;;;;9.75;1.88;;;16.80;99.90;;;;;;5027915;28;21036;-75
2023/07/03 06:58:53;;;;;;;9.05;2.60;;;16.90;99.90;;;;;;5011326;28;20426;-75
2023/07/03 07:01:22;;;;;;;11.60;3.30;;;17.10;99.90;;;;;;4995288;28;20430;-78
2023/07/03 07:03:48;;;;;;;7.80;1.98;;;17.00;99.90;;;;;;4989676;28;20410;-77
2023/07/03 07:06:19;;;;;;;10.00;2.40;;;17.80;99.90;;;;;;5013721;28;20432;-76
2023/07/03 07:08:45;;;;;;;4.43;1.35;;;17.70;99.90;;;;;;4992555;28;20413;-75
2023/07/03 07:11:13;;;;;;;5.40;1.20;;;17.50;99.90;;;;;;5005388;28;20936;-76
2023/07/03 07:13:41;;;;;;;5.20;1.40;;;17.30;99.90;;;;;;5005694;28;20437;-76
2023/07/03 07:16:36;;;;;;;7.72;1.70;;;17.00;99.90;;;;;;5008517;28;20424;-76
2023/07/03 07:19:05;;;;;;;7.60;2.00;;;17.00;99.90;;;;;;4994593;28;20443;-76
2023/07/03 07:21:33;;;;;;;7.07;1.33;;;16.90;99.90;;;;;;5009483;28;20437;-77
2023/07/03 07:24:15;;;;;;;8.68;1.77;;;16.70;99.90;;;;;;4991707;28;20520;-76
2023/07/03 07:26:41;;;;;;;5.72;1.35;;;16.50;99.90;;;;;;5021192;28;20428;-77
2023/07/03 07:29:06;;;;;;;7.80;1.60;;;16.40;99.90;;;;;;5013681;28;20988;-74
2023/07/03 07:31:36;;;;;;;5.80;1.37;;;16.40;99.90;;;;;;5007285;28;20440;-75
2023/07/03 07:34:04;;;;;;;6.63;1.75;;;16.50;99.90;;;;;;4999374;28;20504;-77
2023/07/03 07:36:30;;;;;;;7.60;2.08;;;16.50;99.90;;;;;;4989275;28;22399;-76
2023/07/03 07:38:59;;;;;;;7.40;1.63;;;16.70;99.90;;;;;;5021680;28;20438;-74
2023/07/03 07:41:25;;;;;;;8.75;2.33;;;16.90;99.90;;;;;;5025976;28;20411;-74
2023/07/03 07:43:51;;;;;;;5.97;1.48;;;17.50;99.90;;;;;;5021959;28;21308;-74
2023/07/03 07:46:17;;;;;;;7.63;1.60;;;19.20;99.90;;;;;;5005825;28;20594;-74
2023/07/03 07:48:45;;;;;;;5.60;1.93;;;19.00;99.90;;;;;;5006699;28;20752;-73
2023/07/03 07:51:11;;;;;;;8.87;2.50;;;18.30;99.90;;;;;;4989015;28;20443;-75
2023/07/03 07:53:38;;;;;;;6.97;2.08;;;18.00;99.90;;;;;;5007318;28;20490;-75
2023/07/03 07:56:07;;;;;;;7.10;1.75;;;17.60;99.90;;;;;;5007429;28;20851;-74
2023/07/03 07:58:32;;;;;;;6.15;1.50;;;17.50;99.90;;;;;;5005376;28;20451;-75
2023/07/03 08:00:58;;;;;;;9.07;2.08;;;17.50;99.90;;;;;;4988642;28;20428;-73
2023/07/03 08:03:25;;;;;;;5.43;1.48;;;17.40;99.90;;;;;;5004967;28;21592;-73
2023/07/03 08:05:57;;;;;;;7.20;2.03;;;17.30;99.90;;;;;;5005882;28;20482;-75
2023/07/03 08:08:22;;;;;;;7.23;1.57;;;17.40;99.90;;;;;;5006302;28;20412;-74
2023/07/03 08:10:52;;;;;;;6.27;1.43;;;17.40;99.90;;;;;;4988701;28;20429;-75
2023/07/03 08:13:18;;;;;;;8.70;2.05;;;17.70;99.90;;;;;;5005469;28;20421;-76
2023/07/03 08:15:47;;;;;;;7.75;1.60;;;17.80;99.90;;;;;;5006312;28;20954;-73
2023/07/03 08:18:15;;;;;;;4.80;1.23;;;17.80;99.90;;;;;;4988208;28;20766;-74
2023/07/03 08:20:40;;;;;;;7.25;1.92;;;17.90;99.90;;;;;;5006413;28;20421;-75
2023/07/03 08:23:06;;;;;;;12.77;2.10;;;17.90;99.90;;;;;;5006470;28;20435;-75
2023/07/03 08:25:32;;;;;;;8.27;1.80;;;17.70;99.90;;;;;;4988592;28;20421;-74
2023/07/03 08:27:58;;;;;;;7.90;1.92;;;17.70;99.90;;;;;;4988916;28;20403;-75
2023/07/03 08:30:23;;;;;;;6.22;1.70;;;18.30;99.90;;;;;;4985459;28;21003;-73
2023/07/03 08:32:49;;;;;;;5.53;1.60;;;18.10;99.90;;;;;;4993741;28;20504;-75
2023/07/03 08:35:17;;;;;;;7.70;1.40;;;17.80;99.90;;;;;;5006030;28;20416;-75
2023/07/03 08:37:43;;;;;;;10.65;1.65;;;17.60;99.90;;;;;;5006337;28;20421;-73
2023/07/03 08:40:10;;;;;;;9.57;2.55;;;17.20;99.90;;;;;;5006348;28;20416;-76
2023/07/03 08:42:44;;;;;;;7.82;1.95;;;17.00;99.90;;;;;;5005445;28;20469;-75
2023/07/03 08:45:14;;;;;;;9.88;2.05;;;17.00;99.90;;;;;;5005565;28;20493;-75
2023/07/03 08:47:41;;;;;;;8.25;1.75;;;17.10;99.90;;;;;;5007236;28;20902;-74
2023/07/03 08:50:09;;;;;;;8.88;1.50;;;17.20;99.90;;;;;;5017169;28;20417;-74
2023/07/03 08:52:46;;;;;;;6.15;1.30;;;17.50;99.90;;;;;;4999409;28;20447;-74
2023/07/03 08:55:18;;;;;;;9.98;1.50;;;17.50;99.90;;;;;;5010055;28;20791;-74
2023/07/03 08:57:44;;;;;;;7.72;1.80;;;17.70;99.90;;;;;;5007792;28;20929;-75
2023/07/03 09:00:11;;;;;;;4.80;1.10;;;17.80;99.90;;;;;;5024375;28;20429;-76
2023/07/03 09:03:08;;;;;;;2.63;0.90;;;17.60;99.90;;;;;;5027226;28;20430;-76
2023/07/03 09:05:53;;;;;;;3.05;0.85;;;17.50;99.90;;;;;;5015005;28;20513;-74
2023/07/03 09:08:40;;;;;;;3.63;0.75;;;17.90;99.90;;;;;;5010945;28;20413;-75
2023/07/03 09:11:06;;;;;;;3.80;0.82;;;18.00;99.90;;;;;;5027836;28;20426;-73
2023/07/03 09:13:45;;;;;;;4.90;1.00;;;17.70;99.90;;;;;;4995432;28;20533;-74
2023/07/03 09:16:22;;;;;;;6.40;1.42;;;17.60;99.90;;;;;;5022581;28;20947;-75
2023/07/03 09:19:02;;;;;;;4.05;1.30;;;17.30;99.90;;;;;;5010807;28;20467;-75
2023/07/03 09:21:29;;;;;;;8.20;1.73;;;17.30;99.90;;;;;;5001920;28;21187;-77
2023/07/03 09:24:19;;;;;;;3.92;1.08;;;17.10;99.90;;;;;;5032099;28;20506;-74
2023/07/03 09:27:04;;;;;;;4.03;1.10;;;16.80;99.90;;;;;;5010785;28;20424;-74
2023/07/03 09:29:34;;;;;;;3.50;0.83;;;16.60;99.90;;;;;;5005954;28;20575;-75
2023/07/03 09:32:00;;;;;;;3.72;0.68;;;16.60;99.90;;;;;;5012293;28;20428;-74
2023/07/03 09:34:25;;;;;;;4.22;0.95;;;16.10;99.90;;;;;;4995154;28;20435;-75
2023/07/03 09:36:58;;;;;;;4.23;1.00;;;16.10;99.90;;;;;;5002506;28;20417;-75
2023/07/03 09:39:25;;;;;;;6.13;1.20;;;15.90;99.90;;;;;;5009511;28;20421;-76
2023/07/03 09:41:53;;;;;;;6.80;1.42;;;15.40;99.90;;;;;;5021138;28;20958;-75
2023/07/03 09:44:22;;;;;;;7.82;2.50;;;15.50;99.90;;;;;;5008616;28;20821;-75
2023/07/03 09:46:48;;;;;;;9.85;2.03;;;15.30;99.90;;;;;;5012269;28;20452;-75
2023/07/03 09:49:21;;;;;;;10.93;1.60;;;15.30;99.90;;;;;;5004149;28;20417;-75
2023/07/03 09:51:52;;;;;;;14.50;2.65;;;15.00;99.90;;;;;;4988959;28;20438;-75
2023/07/03 09:54:25;;;;;;;9.43;2.75;;;15.10;99.90;;;;;;5007301;28;20488;-75
2023/07/03 09:56:51;;;;;;;9.82;1.80;;;14.90;99.90;;;;;;4996816;28;20409;-76
2023/07/03 09:59:19;;;;;;;8.45;1.88;;;14.80;99.90;;;;;;5002885;28;20419;-75
2023/07/03 10:01:46;;;;;;;6.88;1.48;;;14.90;99.90;;;;;;5014592;28;20433;-75
2023/07/03 10:04:15;;;;;;;8.70;1.50;;;15.10;99.90;;;;;;5005083;28;20435;-75
2023/07/03 10:07:04;;;;;;;7.80;1.95;;;15.60;99.90;;;;;;4999537;28;20496;-74
2023/07/03 10:09:35;;;;;;;8.30;1.92;;;16.00;99.90;;;;;;5006581;28;20418;-78
2023/07/03 10:12:21;;;;;;;11.20;2.00;;;16.50;99.90;;;;;;5004869;28;22320;-73
2023/07/03 10:14:55;;;;;;;10.43;2.20;;;16.90;99.90;;;;;;5009061;28;20506;-73
2023/07/03 10:17:31;;;;;;;9.88;3.78;;;17.20;99.90;;;;;;5007772;28;20836;-74
2023/07/03 10:20:03;;;;;;;7.03;1.98;;;17.00;99.90;;;;;;5004543;28;20428;-74
2023/07/03 10:22:30;;;;;;;7.78;2.10;;;17.00;99.90;;;;;;5002673;28;20767;-73
2023/07/03 10:25:01;;;;;;;8.33;2.13;;;16.90;99.90;;;;;;5012825;28;20514;-75
2023/07/03 10:27:28;;;;;;;12.03;3.20;;;16.80;99.90;;;;;;5015178;28;20429;-74
2023/07/03 10:29:55;;;;;;;6.95;1.65;;;16.80;99.90;;;;;;5007347;28;20426;-74
2023/07/03 10:32:25;;;;;;;4.80;1.38;;;16.80;99.90;;;;;;4996738;28;20472;-76
2023/07/03 10:35:18;;;;;;;10.43;2.45;;;16.80;99.90;;;;;;5000843;28;20932;-76
2023/07/03 10:38:13;;;;;;;7.85;2.05;;;17.10;99.90;;;;;;4974581;28;20457;-76
2023/07/03 10:41:00;;;;;;;4.87;1.40;;;17.00;99.90;;;;;;5008807;28;20451;-75
2023/07/03 10:43:34;;;;;;;5.43;1.30;;;17.10;99.90;;;;;;4997663;28;20439;-75
2023/07/03 10:46:01;;;;;;;3.97;1.35;;;17.40;99.90;;;;;;4981958;28;20453;-74
2023/07/03 10:48:32;;;;;;;5.40;1.23;;;17.50;99.90;;;;;;5009090;28;20507;-75
2023/07/03 10:51:21;;;;;;;4.07;1.30;;;17.90;99.90;;;;;;4999938;28;20437;-75
2023/07/03 10:53:52;;;;;;;4.68;1.20;;;18.20;99.90;;;;;;5008140;28;20425;-73
2023/07/03 10:56:24;;;;;;;5.32;1.33;;;18.20;99.90;;;;;;4975160;28;20737;-73
2023/07/03 10:59:06;;;;;;;6.90;1.23;;;17.90;99.90;;;;;;5006306;28;20830;-75
2023/07/03 11:02:02;;;;;;;4.30;1.05;;;18.00;99.90;;;;;;4991478;28;20757;-74
2023/07/03 11:04:40;;;;;;;4.22;1.08;;;17.90;99.90;;;;;;4990589;28;20429;-73
2023/07/03 11:07:32;;;;;;;4.85;1.33;;;17.70;99.90;;;;;;4990230;28;20773;-75
2023/07/03 11:10:00;;;;;;;4.57;0.95;;;17.60;99.90;;;;;;4984861;28;20417;-74
2023/07/03 11:12:41;;;;;;;4.22;1.30;;;17.60;99.90;;;;;;4998950;28;20829;-72
2023/07/03 11:15:18;;;;;;;5.25;1.50;;;18.10;99.90;;;;;;5008362;28;20497;-74
2023/07/03 11:18:22;;;;;;;7.60;1.40;;;18.20;99.90;;;;;;4983905;28;20819;-75
2023/07/03 11:20:56;;;;;;;4.85;1.15;;;18.00;99.90;;;;;;4938682;28;20971;-74
2023/07/03 11:23:48;;;;;;;6.53;1.00;;;17.70;99.90;;;;;;4973684;28;20436;-74
2023/07/03 11:26:41;;;;;;;5.90;1.25;;;17.50;99.90;;;;;;5004991;28;20433;-75
2023/07/03 11:29:09;;;;;;;3.97;1.15;;;17.20;99.90;;;;;;4999477;28;20428;-75
2023/07/03 11:31:39;;;;;;;5.47;1.40;;;17.10;99.90;;;;;;5005726;28;20942;-74
2023/07/03 11:34:08;;;;;;;5.35;1.40;;;17.80;99.90;;;;;;4973823;28;20964;-75
2023/07/03 11:36:46;;;;;;;4.55;1.33;;;18.00;99.90;;;;;;5008182;28;20416;-75
2023/07/03 11:39:29;;;;;;;5.65;1.77;;;17.90;99.90;;;;;;4989165;28;20955;-73
2023/07/03 11:42:11;;;;;;;6.40;1.92;;;17.80;99.90;;;;;;5005640;28;20412;-74
2023/07/03 11:45:05;;;;;;;5.78;1.67;;;17.60;99.90;;;;;;5001615;28;20503;-74
2023/07/03 11:47:35;;;;;;;6.93;1.35;;;18.10;99.90;;;;;;4967939;28;20797;-74
2023/07/03 11:50:05;;;;;;;8.10;1.73;;;18.20;99.90;;;;;;4989611;28;20429;-74
2023/07/03 11:52:36;;;;;;;3.78;1.50;;;17.80;99.90;;;;;;5003405;28;20464;-75
2023/07/03 11:55:18;;;;;;;7.40;1.52;;;17.80;99.90;;;;;;4989640;28;20432;-75
2023/07/03 11:57:54;;;;;;;7.70;1.58;;;17.70;99.90;;;;;;5005841;28;20935;-75
2023/07/03 12:00:27;;;;;;;6.07;1.20;;;18.10;99.90;;;;;;5007007;28;20413;-74
2023/07/03 12:03:11;;;;;;;4.20;1.15;;;17.90;99.90;;;;;;5006928;28;20436;-75
2023/07/03 12:05:42;;;;;;;5.97;1.33;;;17.90;99.90;;;;;;5002738;28;20435;-74
2023/07/03 12:08:18;;;;;;;4.88;1.40;;;17.70;99.90;;;;;;4987962;28;20439;-75
2023/07/03 12:10:54;;;;;;;7.30;1.88;;;17.60;99.90;;;;;;5006610;28;20428;-75
2023/07/03 12:13:47;;;;;;;7.18;1.67;;;17.60;99.90;;;;;;5006197;28;20444;-75
2023/07/03 12:16:15;;;;;;;4.63;1.13;;;17.50;99.90;;;;;;5007804;28;20480;-76
2023/07/03 12:18:41;;;;;;;5.07;1.60;;;17.40;99.90;;;;;;5008002;28;20432;-73
2023/07/03 12:21:07;;;;;;;4.50;1.30;;;17.20;99.90;;;;;;4974117;28;20409;-75
2023/07/03 12:23:39;;;;;;;7.00;1.58;;;17.30;99.90;;;;;;5008980;28;20429;-74
2023/07/03 12:26:11;;;;;;;9.18;1.50;;;17.20;99.90;;;;;;4993252;28;20443;-76
2023/07/03 12:28:37;;;;;;;6.43;1.35;;;17.00;99.90;;;;;;5009415;28;21020;-73
2023/07/03 12:31:20;;;;;;;6.22;1.48;;;17.30;99.90;;;;;;5010702;28;20981;-76
2023/07/03 12:33:52;;;;;;;8.40;1.90;;;17.30;99.90;;;;;;5009189;28;20945;-74
2023/07/03 12:36:30;;;;;;;6.85;2.20;;;17.40;99.90;;;;;;4992036;28;20432;-74
2023/07/03 12:38:58;;;;;;;7.93;1.55;;;17.30;99.90;;;;;;4991806;28;20976;-74
2023/07/03 12:41:32;;;;;;;6.70;1.95;;;17.20;99.90;;;;;;5009753;28;20420;-74
2023/07/03 12:44:00;;;;;;;5.25;2.05;;;17.30;99.90;;;;;;4989360;28;20429;-74
2023/07/03 12:46:26;;;;;;;5.80;1.33;;;17.30;99.90;;;;;;4991146;28;20472;-75
2023/07/03 12:49:11;;;;;;;4.68;0.98;;;17.10;99.90;;;;;;5008014;28;20959;-73
2023/07/03 12:51:56;;;;;;;7.20;1.10;;;16.90;99.90;;;;;;5011296;28;20519;-75
2023/07/03 12:54:22;;;;;;;2.88;1.20;;;16.90;99.90;;;;;;5010393;28;20914;-75
2023/07/03 12:56:52;;;;;;;4.53;1.38;;;17.00;99.90;;;;;;5009303;28;20397;-74